Time;durP1;ratioP1;P1;durP2;ratioP2;P2;SDS_P1;SDS_P2;PMS_P1;PMS_P2;Temp;Humidity;BMP_temperature;BMP_pressure;BME280_temperature;BME280_humidity;BME280_pressure;Samples;Min_cycle;Max_cycle;Signal;HPM_P1;HPM_P2
2023/10/09 00:01:44;;;;;;;4.03;1.85;;;;;;;;;;5110698;28;20043;-82
2023/10/09 00:04:11;;;;;;;3.97;1.98;;;;;;;;;;5110667;28;20108;-82
2023/10/09 00:06:38;;;;;;;4.38;1.92;;;;;;;;;;5110669;28;20044;-82
2023/10/09 00:09:46;;;;;;;3.72;1.80;;;;;;;;;;5110292;28;20098;-81
2023/10/09 00:12:10;;;;;;;4.10;2.00;;;;;;;;;;5106365;28;20462;-81
2023/10/09 00:14:38;;;;;;;4.40;2.40;;;;;;;;;;5110070;28;20047;-81
2023/10/09 00:17:31;;;;;;;3.45;2.03;;;;;;;;;;5110601;28;20044;-82
2023/10/09 00:19:54;;;;;;;4.70;1.88;;;;;;;;;;5109822;28;20043;-80
2023/10/09 00:25:10;;;;;;;3.87;2.00;;;;;;;;;;5109877;28;20047;-81
2023/10/09 00:27:46;;;;;;;3.90;1.92;;;;;;;;;;5110430;28;20047;-81
2023/10/09 00:30:19;;;;;;;5.13;2.28;;;;;;;;;;5109844;28;20071;-81
2023/10/09 00:40:52;;;;;;;4.78;2.15;;;;;;;;;;5109840;28;20051;-82
2023/10/09 00:43:19;;;;;;;4.88;2.17;;;;;;;;;;5110260;28;20056;-81
2023/10/09 00:45:46;;;;;;;4.95;2.00;;;;;;;;;;5109850;28;20040;-82
2023/10/09 00:48:29;;;;;;;5.47;2.00;;;;;;;;;;5110317;28;20047;-81
2023/10/09 00:51:00;;;;;;;5.10;2.15;;;;;;;;;;5109258;28;20040;-81
2023/10/09 00:53:36;;;;;;;6.00;2.00;;;;;;;;;;5109533;28;20131;-82
2023/10/09 00:56:28;;;;;;;4.88;1.80;;;;;;;;;;5093259;28;20043;-81
2023/10/09 00:59:06;;;;;;;3.60;1.73;;;;;;;;;;5094870;28;20122;-80
2023/10/09 01:01:36;;;;;;;3.80;1.95;;;;;;;;;;5108361;28;20047;-80
2023/10/09 01:04:10;;;;;;;4.65;1.90;;;;;;;;;;5091770;28;20051;-82
2023/10/09 01:06:45;;;;;;;4.35;1.83;;;;;;;;;;5109694;28;20146;-81
2023/10/09 01:09:20;;;;;;;4.45;2.03;;;;;;;;;;5109158;28;20043;-80
2023/10/09 01:11:57;;;;;;;3.67;2.13;;;;;;;;;;5108578;28;20425;-80
2023/10/09 01:14:36;;;;;;;4.68;1.70;;;;;;;;;;5109275;28;20048;-81
2023/10/09 01:17:18;;;;;;;4.00;1.98;;;;;;;;;;5109153;28;20051;-81
2023/10/09 01:19:47;;;;;;;5.70;1.95;;;;;;;;;;5109024;28;20552;-81
2023/10/09 01:22:14;;;;;;;3.08;1.65;;;;;;;;;;5109585;28;20135;-82
2023/10/09 01:24:41;;;;;;;4.85;1.92;;;;;;;;;;5108984;28;20537;-81
2023/10/09 01:27:14;;;;;;;4.80;2.25;;;;;;;;;;5109575;28;20048;-81
2023/10/09 01:29:44;;;;;;;3.72;1.88;;;;;;;;;;5109348;28;20047;-81
2023/10/09 01:32:16;;;;;;;3.63;1.80;;;;;;;;;;5109293;28;20047;-82
2023/10/09 01:34:45;;;;;;;4.25;1.83;;;;;;;;;;5109041;28;20411;-81
2023/10/09 01:37:28;;;;;;;2.92;1.60;;;;;;;;;;5109357;28;20051;-82
2023/10/09 01:40:24;;;;;;;3.58;1.80;;;;;;;;;;5108659;28;20055;-82
2023/10/09 01:42:46;;;;;;;4.22;1.92;;;;;;;;;;5108661;28;20440;-74
2023/10/09 01:47:53;;;;;;;3.20;1.70;;;;;;;;;;5109391;28;20044;-81
2023/10/09 01:50:27;;;;;;;6.03;2.03;;;;;;;;;;5109022;28;20043;-82
2023/10/09 01:52:53;;;;;;;3.10;1.63;;;;;;;;;;5108534;28;20503;-82
2023/10/09 01:55:34;;;;;;;6.45;2.00;;;;;;;;;;5108787;28;20044;-82
2023/10/09 01:58:37;;;;;;;3.90;2.00;;;;;;;;;;5109236;28;20046;-82
2023/10/09 02:00:56;;;;;;;5.88;2.10;;;;;;;;;;5103893;28;20046;-82
2023/10/09 02:03:23;;;;;;;3.85;2.00;;;;;;;;;;5108966;28;20043;-82
2023/10/09 02:05:53;;;;;;;3.15;1.80;;;;;;;;;;5108669;28;20448;-81
2023/10/09 02:08:35;;;;;;;4.22;2.15;;;;;;;;;;5108443;28;20046;-82
2023/10/09 02:11:02;;;;;;;4.38;1.88;;;;;;;;;;5108360;28;20044;-82
2023/10/09 02:13:29;;;;;;;3.42;1.90;;;;;;;;;;5109015;28;20051;-82
2023/10/09 02:16:13;;;;;;;3.90;2.00;;;;;;;;;;5108256;28;20051;-81
2023/10/09 02:18:52;;;;;;;3.63;1.83;;;;;;;;;;5109142;28;20051;-81
2023/10/09 02:21:31;;;;;;;4.10;2.03;;;;;;;;;;5108440;28;20075;-81
2023/10/09 02:24:02;;;;;;;3.78;1.90;;;;;;;;;;5112744;28;20048;-81
2023/10/09 02:29:14;;;;;;;4.53;2.35;;;;;;;;;;5112807;28;20051;-81
2023/10/09 02:31:46;;;;;;;6.50;2.10;;;;;;;;;;5112680;28;20043;-82
2023/10/09 02:34:15;;;;;;;5.72;2.38;;;;;;;;;;5112524;28;20094;-82
2023/10/09 02:36:43;;;;;;;8.60;2.00;;;;;;;;;;5112648;28;20048;-81
2023/10/09 02:39:28;;;;;;;3.70;1.90;;;;;;;;;;5112308;28;20049;-82
2023/10/09 02:42:30;;;;;;;3.28;1.77;;;;;;;;;;5112181;28;20078;-80
2023/10/09 02:44:51;;;;;;;5.75;2.10;;;;;;;;;;5107725;28;20052;-82
2023/10/09 02:47:29;;;;;;;3.78;1.98;;;;;;;;;;5112020;28;20495;-78
2023/10/09 02:50:19;;;;;;;3.63;1.92;;;;;;;;;;5112433;28;20047;-81
2023/10/09 02:52:52;;;;;;;3.13;1.90;;;;;;;;;;5112021;28;20043;-82
2023/10/09 02:55:27;;;;;;;4.28;2.00;;;;;;;;;;5111723;28;20047;-81
2023/10/09 02:58:10;;;;;;;3.63;2.10;;;;;;;;;;5112038;28;20062;-81
2023/10/09 03:00:37;;;;;;;4.00;2.10;;;;;;;;;;5111646;28;20050;-78
2023/10/09 03:03:07;;;;;;;4.38;2.00;;;;;;;;;;5112029;28;20099;-75
2023/10/09 03:05:34;;;;;;;4.10;2.00;;;;;;;;;;5111980;28;20047;-82
2023/10/09 03:08:03;;;;;;;4.25;1.90;;;;;;;;;;5111468;28;20966;-75
2023/10/09 03:10:29;;;;;;;5.88;2.55;;;;;;;;;;5111744;28;20554;-81
2023/10/09 03:12:59;;;;;;;3.47;1.90;;;;;;;;;;5111887;28;20052;-81
2023/10/09 03:15:29;;;;;;;4.35;2.10;;;;;;;;;;5110108;28;20143;-82
2023/10/09 03:17:56;;;;;;;3.83;1.90;;;;;;;;;;5111822;28;20089;-82
2023/10/09 03:20:22;;;;;;;4.53;2.13;;;;;;;;;;5111363;28;20062;-81
2023/10/09 03:22:49;;;;;;;6.70;3.35;;;;;;;;;;5111115;28;20059;-79
2023/10/09 03:25:16;;;;;;;8.50;2.95;;;;;;;;;;5111362;28;20048;-81
2023/10/09 03:27:47;;;;;;;6.28;2.97;;;;;;;;;;5111380;28;20051;-80
2023/10/09 03:30:23;;;;;;;6.05;3.00;;;;;;;;;;5111199;28;20495;-81
2023/10/09 03:32:54;;;;;;;4.95;2.75;;;;;;;;;;5110951;28;20047;-82
2023/10/09 03:35:25;;;;;;;5.18;2.65;;;;;;;;;;5110845;28;20140;-81
2023/10/09 03:38:00;;;;;;;6.38;3.42;;;;;;;;;;5110542;28;20487;-76
2023/10/09 03:40:28;;;;;;;7.85;3.17;;;;;;;;;;5111255;28;20066;-81
2023/10/09 03:42:54;;;;;;;5.32;3.30;;;;;;;;;;5110853;28;20047;-81
2023/10/09 03:45:25;;;;;;;5.05;2.80;;;;;;;;;;5111015;28;20044;-81
2023/10/09 03:48:08;;;;;;;4.20;2.22;;;;;;;;;;5110785;28;20082;-81
2023/10/09 03:50:35;;;;;;;5.22;2.20;;;;;;;;;;5111206;28;20047;-81
2023/10/09 03:53:07;;;;;;;4.45;2.10;;;;;;;;;;5110466;28;20051;-79
2023/10/09 03:55:38;;;;;;;;;;;;;;;;;;5111106;28;20055;-82
2023/10/09 03:58:06;;;;;;;6.18;2.60;;;;;;;;;;5110599;28;20329;-81
2023/10/09 04:00:41;;;;;;;4.65;2.30;;;;;;;;;;5110835;28;20047;-80
2023/10/09 04:03:11;;;;;;;4.75;2.17;;;;;;;;;;5110552;28;20047;-81
2023/10/09 04:05:41;;;;;;;;;;;;;;;;;;5111130;28;20415;-81
2023/10/09 04:08:28;;;;;;;5.33;2.23;;;;;;;;;;5092100;28;19926;-81
2023/10/09 04:11:01;;;;;;;7.32;2.35;;;;;;;;;;5110525;28;20074;-81
2023/10/09 04:13:34;;;;;;;4.53;2.20;;;;;;;;;;5110357;28;20050;-82
2023/10/09 04:16:11;;;;;;;3.35;2.08;;;;;;;;;;5110198;28;20087;-80
2023/10/09 04:18:39;;;;;;;4.35;2.15;;;;;;;;;;5110274;28;20043;-81
2023/10/09 04:21:18;;;;;;;5.30;2.17;;;;;;;;;;5110491;28;20139;-81
2023/10/09 04:26:34;;;;;;;3.83;2.03;;;;;;;;;;5110302;28;20098;-78
2023/10/09 04:29:02;;;;;;;4.32;2.15;;;;;;;;;;5092408;28;20040;-82
2023/10/09 04:31:32;;;;;;;4.22;2.28;;;;;;;;;;5110192;28;20078;-80
2023/10/09 04:36:49;;;;;;;6.72;2.10;;;;;;;;;;5109927;28;20130;-82
2023/10/09 04:39:35;;;;;;;4.05;2.40;;;;;;;;;;5109846;28;20043;-82
2023/10/09 04:45:18;;;;;;;8.02;2.50;;;;;;;;;;5109592;28;20400;-82
2023/10/09 04:47:49;;;;;;;4.03;2.05;;;;;;;;;;5109246;28;20059;-82
2023/10/09 04:53:22;;;;;;;6.88;2.33;;;;;;;;;;5109146;28;20078;-81
2023/10/09 04:55:53;;;;;;;5.50;2.25;;;;;;;;;;5109415;28;20043;-78
2023/10/09 04:58:25;;;;;;;6.43;2.50;;;;;;;;;;5109592;28;20097;-82
2023/10/09 05:03:29;;;;;;;7.38;2.15;;;;;;;;;;5091820;28;20066;-81
2023/10/09 05:05:59;;;;;;;4.68;2.38;;;;;;;;;;5110007;28;20051;-80
2023/10/09 05:13:42;;;;;;;6.05;2.30;;;;;;;;;;5108884;28;20052;-79
2023/10/09 05:16:25;;;;;;;5.50;2.00;;;;;;;;;;5109231;28;20507;-82
2023/10/09 05:18:56;;;;;;;8.10;2.20;;;;;;;;;;5109368;28;20044;-80
2023/10/09 05:37:34;;;;;;;8.05;2.20;;;;;;;;;;5109031;28;20054;-81
2023/10/09 05:42:57;;;;;;;5.25;2.45;;;;;;;;;;5108704;28;20043;-82
2023/10/09 06:04:49;;;;;;;4.30;2.10;;;;;;;;;;5112553;28;20039;-81
2023/10/09 06:07:23;;;;;;;5.65;2.13;;;;;;;;;;5113045;28;20045;-82
2023/10/09 06:09:52;;;;;;;4.75;2.20;;;;;;;;;;5112442;28;20150;-81
2023/10/09 06:15:30;;;;;;;5.85;1.98;;;;;;;;;;5112379;28;20047;-83
2023/10/09 06:18:25;;;;;;;9.98;2.30;;;;;;;;;;5112937;28;20048;-82
2023/10/09 06:21:07;;;;;;;5.93;2.30;;;;;;;;;;5112227;28;20523;-82
2023/10/09 06:26:26;;;;;;;7.15;2.17;;;;;;;;;;5112605;28;20039;-81
2023/10/09 06:29:13;;;;;;;3.95;2.00;;;;;;;;;;5112208;28;20510;-81
2023/10/09 06:31:57;;;;;;;5.50;2.00;;;;;;;;;;5112700;28;20044;-81
2023/10/09 06:34:35;;;;;;;6.80;2.38;;;;;;;;;;5111671;28;20043;-81
2023/10/09 06:37:34;;;;;;;6.22;2.15;;;;;;;;;;5112091;28;20112;-80
2023/10/09 06:45:05;;;;;;;9.13;2.25;;;;;;;;;;5112117;28;20093;-81
2023/10/09 06:47:41;;;;;;;4.75;2.28;;;;;;;;;;5112420;28;20051;-82
2023/10/09 06:52:57;;;;;;;5.40;2.17;;;;;;;;;;5112014;28;20047;-81
2023/10/09 06:55:34;;;;;;;5.55;2.00;;;;;;;;;;5111400;28;20059;-81
2023/10/09 06:58:09;;;;;;;4.53;2.22;;;;;;;;;;5111488;28;20495;-75
2023/10/09 07:01:00;;;;;;;10.35;2.58;;;;;;;;;;5111893;28;20051;-81
2023/10/09 07:03:34;;;;;;;6.03;2.40;;;;;;;;;;5111872;28;20048;-81
2023/10/09 07:06:23;;;;;;;4.75;2.00;;;;;;;;;;5111806;28;20142;-80
2023/10/09 07:17:43;;;;;;;4.75;1.98;;;;;;;;;;5069534;28;20552;-81
2023/10/09 07:20:14;;;;;;;4.65;2.13;;;;;;;;;;5111616;28;20047;-82
2023/10/09 07:23:13;;;;;;;7.70;2.38;;;;;;;;;;5111567;28;20059;-80
2023/10/09 07:25:42;;;;;;;4.72;2.15;;;;;;;;;;5111579;28;20207;-80
2023/10/09 07:31:09;;;;;;;6.50;2.15;;;;;;;;;;5083147;28;20040;-79
2023/10/09 07:36:37;;;;;;;13.32;2.90;;;;;;;;;;5111059;28;20423;-81
2023/10/09 07:39:13;;;;;;;6.63;2.13;;;;;;;;;;5110482;28;20043;-81
2023/10/09 07:42:01;;;;;;;9.95;2.58;;;;;;;;;;5111515;28;20089;-81
2023/10/09 07:44:36;;;;;;;6.85;2.70;;;;;;;;;;5110715;28;20050;-82
2023/10/09 07:49:53;;;;;;;7.38;2.55;;;;;;;;;;5110823;28;20043;-81
2023/10/09 07:52:23;;;;;;;8.27;2.95;;;;;;;;;;5110870;28;20163;-72
2023/10/09 07:54:52;;;;;;;14.10;2.85;;;;;;;;;;5110556;28;20051;-81
2023/10/09 07:57:26;;;;;;;11.03;2.70;;;;;;;;;;5110598;28;20043;-81
2023/10/09 08:00:00;;;;;;;10.45;2.55;;;;;;;;;;5110623;28;20511;-81
2023/10/09 08:02:34;;;;;;;10.43;2.92;;;;;;;;;;5110924;28;20499;-81
2023/10/09 08:05:06;;;;;;;9.85;2.65;;;;;;;;;;5110505;28;20043;-81
2023/10/09 08:07:36;;;;;;;12.63;2.92;;;;;;;;;;5110562;28;20483;-81
2023/10/09 08:15:20;;;;;;;13.75;3.25;;;;;;;;;;5109904;28;20055;-80
2023/10/09 08:17:53;;;;;;;10.10;2.70;;;;;;;;;;5110426;28;20625;-80
2023/10/09 08:20:51;;;;;;;7.13;2.55;;;;;;;;;;5109825;28;20507;-80
2023/10/09 08:23:29;;;;;;;8.90;2.60;;;;;;;;;;5110298;28;20047;-82
2023/10/09 08:26:15;;;;;;;7.70;3.08;;;;;;;;;;5109791;28;20527;-82
2023/10/09 08:28:43;;;;;;;11.40;3.03;;;;;;;;;;5109030;28;20264;-80
2023/10/09 08:33:58;;;;;;;11.23;2.97;;;;;;;;;;5110196;28;20048;-81
2023/10/09 08:36:28;;;;;;;11.32;2.88;;;;;;;;;;5110298;28;20059;-82
2023/10/09 08:39:01;;;;;;;8.95;2.92;;;;;;;;;;5110011;28;20039;-82
2023/10/09 08:41:30;;;;;;;7.43;2.42;;;;;;;;;;5110107;28;20043;-81
2023/10/09 08:43:57;;;;;;;13.38;2.92;;;;;;;;;;5109961;28;20036;-79
2023/10/09 08:46:29;;;;;;;8.60;2.80;;;;;;;;;;5109559;28;20511;-82
2023/10/09 08:48:58;;;;;;;12.52;2.75;;;;;;;;;;5110401;28;20100;-82
2023/10/09 08:51:27;;;;;;;11.57;2.93;;;;;;;;;;5110162;28;20047;-81
2023/10/09 08:53:55;;;;;;;9.27;2.65;;;;;;;;;;5109605;28;20407;-81
2023/10/09 08:56:23;;;;;;;6.60;3.15;;;;;;;;;;5109191;28;20090;-78
2023/10/09 08:58:52;;;;;;;10.73;3.10;;;;;;;;;;5110229;28;20044;-82
2023/10/09 09:01:21;;;;;;;5.88;2.17;;;;;;;;;;5109794;28;20649;-82
2023/10/09 09:03:50;;;;;;;4.97;2.55;;;;;;;;;;5109928;28;20044;-76
2023/10/09 09:06:20;;;;;;;6.22;2.45;;;;;;;;;;5109283;28;20044;-81
2023/10/09 09:08:47;;;;;;;6.22;2.58;;;;;;;;;;5109207;28;20047;-82
2023/10/09 09:11:22;;;;;;;8.98;3.00;;;;;;;;;;5109587;28;20100;-81
2023/10/09 09:14:04;;;;;;;6.13;2.50;;;;;;;;;;5109607;28;20384;-81
2023/10/09 09:16:36;;;;;;;7.88;2.80;;;;;;;;;;5109145;28;20059;-77
2023/10/09 09:21:40;;;;;;;14.70;3.53;;;;;;;;;;5109228;28;20047;-82
2023/10/09 09:26:45;;;;;;;6.82;2.33;;;;;;;;;;5109397;28;19924;-80
2023/10/09 09:29:19;;;;;;;5.35;2.60;;;;;;;;;;5109712;28;20047;-80
2023/10/09 09:31:54;;;;;;;6.70;2.72;;;;;;;;;;5108761;28;20044;-81
2023/10/09 09:34:25;;;;;;;7.15;2.53;;;;;;;;;;5109371;28;20065;-81
2023/10/09 09:36:56;;;;;;;6.25;2.42;;;;;;;;;;5108892;28;20047;-78
2023/10/09 09:39:29;;;;;;;7.35;2.78;;;;;;;;;;5108683;28;20563;-79
2023/10/09 09:42:15;;;;;;;7.60;2.50;;;;;;;;;;5109061;28;20503;-78
2023/10/09 09:44:43;;;;;;;6.40;2.60;;;;;;;;;;5109073;28;20559;-81
2023/10/09 09:47:23;;;;;;;8.25;2.42;;;;;;;;;;5109733;28;20116;-80
2023/10/09 09:50:00;;;;;;;5.78;2.22;;;;;;;;;;5109229;28;20048;-82
2023/10/09 09:52:40;;;;;;;5.25;2.30;;;;;;;;;;5109279;28;20048;-82
2023/10/09 09:55:14;;;;;;;6.85;2.33;;;;;;;;;;5108484;28;20043;-80
2023/10/09 09:57:45;;;;;;;8.25;2.63;;;;;;;;;;5108997;28;20059;-81
2023/10/09 10:00:27;;;;;;;7.00;2.40;;;;;;;;;;5108786;28;20049;-81
2023/10/09 10:02:58;;;;;;;5.97;2.30;;;;;;;;;;5108991;28;20087;-79
2023/10/09 10:05:29;;;;;;;12.65;2.53;;;;;;;;;;5108519;28;20097;-82
2023/10/09 10:07:59;;;;;;;7.85;2.35;;;;;;;;;;5108588;28;20666;-82
2023/10/09 10:10:58;;;;;;;7.70;2.60;;;;;;;;;;5108510;28;20527;-82
2023/10/09 10:13:58;;;;;;;5.68;2.55;;;;;;;;;;5108985;28;20522;-77
2023/10/09 10:16:34;;;;;;;5.55;2.50;;;;;;;;;;5097017;28;20056;-81
2023/10/09 10:21:49;;;;;;;6.07;2.40;;;;;;;;;;5108851;28;20082;-79
2023/10/09 10:24:30;;;;;;;6.75;2.28;;;;;;;;;;5108521;28;20127;-81
2023/10/09 10:27:09;;;;;;;7.35;2.60;;;;;;;;;;5108805;28;20066;-80
2023/10/09 10:29:38;;;;;;;5.25;2.47;;;;;;;;;;5108761;28;20476;-78
2023/10/09 10:32:08;;;;;;;3.22;2.10;;;;;;;;;;5108820;28;20049;-81
2023/10/09 10:34:57;;;;;;;7.18;2.45;;;;;;;;;;5090911;28;20047;-79
2023/10/09 10:40:57;;;;;;;4.72;2.60;;;;;;;;;;5090499;28;20047;-81
2023/10/09 10:43:47;;;;;;;7.35;2.80;;;;;;;;;;5110600;28;20050;-81
2023/10/09 10:46:15;;;;;;;5.00;2.42;;;;;;;;;;5111864;28;20101;-81
2023/10/09 10:48:47;;;;;;;5.22;2.58;;;;;;;;;;5112174;28;20050;-81
2023/10/09 10:51:23;;;;;;;8.32;2.63;;;;;;;;;;5112067;28;20043;-81
2023/10/09 10:53:57;;;;;;;6.75;2.58;;;;;;;;;;5111980;28;20047;-80
2023/10/09 10:56:35;;;;;;;5.93;2.60;;;;;;;;;;5111647;28;20051;-81
2023/10/09 11:07:00;;;;;;;6.97;2.50;;;;;;;;;;5111849;28;20127;-81
2023/10/09 11:12:44;;;;;;;7.75;2.65;;;;;;;;;;5112229;28;20039;-79
2023/10/09 11:18:09;;;;;;;9.98;2.75;;;;;;;;;;5111949;28;20055;-81
2023/10/09 11:20:38;;;;;;;3.70;2.20;;;;;;;;;;5111708;28;20691;-79
2023/10/09 11:25:50;;;;;;;7.60;2.40;;;;;;;;;;5111730;28;20264;-81
2023/10/09 11:28:42;;;;;;;4.90;2.25;;;;;;;;;;5111766;28;20135;-81
2023/10/09 11:31:15;;;;;;;4.57;2.17;;;;;;;;;;5111881;28;20047;-78
2023/10/09 11:33:51;;;;;;;6.13;2.65;;;;;;;;;;5111571;28;20052;-79
2023/10/09 11:36:32;;;;;;;6.32;2.28;;;;;;;;;;5111147;28;20055;-78
2023/10/09 11:39:13;;;;;;;3.72;2.33;;;;;;;;;;5111001;28;20476;-80
2023/10/09 11:41:44;;;;;;;4.10;2.40;;;;;;;;;;5110755;28;20079;-81
2023/10/09 11:44:23;;;;;;;4.80;2.58;;;;;;;;;;5111303;28;20040;-82
2023/10/09 11:52:38;;;;;;;6.80;2.53;;;;;;;;;;5111043;28;20043;-82
2023/10/09 11:55:16;;;;;;;3.97;2.60;;;;;;;;;;5110582;28;20051;-82
2023/10/09 11:57:43;;;;;;;3.47;2.10;;;;;;;;;;5110175;28;20048;-78
2023/10/09 12:00:42;;;;;;;6.05;2.28;;;;;;;;;;5110882;28;20130;-82
2023/10/09 12:03:04;;;;;;;5.63;2.53;;;;;;;;;;5110575;28;20043;-77
2023/10/09 12:05:33;;;;;;;6.88;2.50;;;;;;;;;;5111076;28;20040;-82
2023/10/09 12:08:01;;;;;;;8.82;2.70;;;;;;;;;;5092159;28;20046;-82
2023/10/09 12:10:29;;;;;;;6.07;2.50;;;;;;;;;;5110985;28;20126;-82
2023/10/09 12:12:59;;;;;;;7.20;2.65;;;;;;;;;;5110715;28;20047;-82
2023/10/09 12:15:36;;;;;;;;;;;;;;;;;;5110804;28;20051;-81
2023/10/09 12:18:06;;;;;;;4.15;2.28;;;;;;;;;;5110336;28;19958;-81
2023/10/09 12:20:34;;;;;;;4.75;2.40;;;;;;;;;;5110440;28;20044;-81
2023/10/09 12:23:06;;;;;;;5.72;2.42;;;;;;;;;;5091777;28;20487;-81
2023/10/09 12:25:35;;;;;;;5.13;2.50;;;;;;;;;;5110695;28;20112;-79
2023/10/09 12:28:03;;;;;;;4.60;2.67;;;;;;;;;;5110022;28;20713;-81
2023/10/09 12:30:30;;;;;;;6.95;2.50;;;;;;;;;;5110518;28;20055;-81
2023/10/09 12:32:58;;;;;;;3.83;2.15;;;;;;;;;;5109925;28;20043;-78
2023/10/09 12:35:25;;;;;;;8.05;2.70;;;;;;;;;;5110410;28;20098;-80
2023/10/09 12:37:56;;;;;;;4.78;2.15;;;;;;;;;;5109564;28;20055;-82
2023/10/09 12:40:29;;;;;;;6.78;2.38;;;;;;;;;;5110038;28;20112;-81
2023/10/09 12:42:58;;;;;;;4.07;2.33;;;;;;;;;;5110148;28;20048;-81
2023/10/09 12:45:26;;;;;;;;;;;;;;;;;;5110754;28;20051;-81
2023/10/09 12:47:58;;;;;;;7.32;2.60;;;;;;;;;;5110015;28;20018;-82
2023/10/09 12:50:28;;;;;;;4.82;2.13;;;;;;;;;;5092006;28;20363;-81
2023/10/09 12:53:02;;;;;;;4.53;2.58;;;;;;;;;;5109773;28;20127;-82
2023/10/09 12:55:31;;;;;;;3.40;1.90;;;;;;;;;;5110057;28;20047;-82
2023/10/09 12:58:07;;;;;;;;;;;;;;;;;;5109734;28;20055;-80
2023/10/09 13:00:37;;;;;;;4.75;2.33;;;;;;;;;;5110167;28;19919;-81
2023/10/09 13:03:19;;;;;;;6.03;2.38;;;;;;;;;;5109871;28;20046;-79
2023/10/09 13:05:57;;;;;;;8.00;2.30;;;;;;;;;;5109246;28;20559;-81
2023/10/09 13:08:39;;;;;;;3.70;2.22;;;;;;;;;;5108927;28;20047;-78
2023/10/09 13:11:10;;;;;;;4.65;2.22;;;;;;;;;;5109389;28;20412;-81
2023/10/09 13:13:47;;;;;;;4.13;2.13;;;;;;;;;;5109168;28;20039;-75
2023/10/09 13:16:25;;;;;;;4.57;2.10;;;;;;;;;;5109419;28;20052;-82
2023/10/09 13:18:56;;;;;;;4.82;2.33;;;;;;;;;;5109569;28;20044;-81
2023/10/09 13:21:27;;;;;;;5.70;2.10;;;;;;;;;;5109357;28;20108;-77
2023/10/09 13:23:57;;;;;;;4.32;2.17;;;;;;;;;;5109103;28;20043;-81
2023/10/09 13:26:30;;;;;;;3.20;2.10;;;;;;;;;;5109304;28;20063;-80
2023/10/09 13:29:02;;;;;;;5.80;2.47;;;;;;;;;;5109149;28;20048;-80
2023/10/09 13:31:33;;;;;;;4.93;2.38;;;;;;;;;;5109544;28;20563;-81
2023/10/09 13:34:02;;;;;;;3.58;2.20;;;;;;;;;;5108989;28;20044;-76
2023/10/09 13:36:33;;;;;;;3.85;2.20;;;;;;;;;;5091295;28;20095;-82
2023/10/09 13:41:59;;;;;;;3.90;2.05;;;;;;;;;;5109333;28;20074;-79
2023/10/09 13:44:27;;;;;;;4.32;2.03;;;;;;;;;;5109195;28;20044;-82
2023/10/09 13:46:59;;;;;;;5.32;2.17;;;;;;;;;;5108969;28;20039;-82
2023/10/09 13:49:31;;;;;;;2.78;1.80;;;;;;;;;;5108898;28;20052;-81
2023/10/09 13:52:06;;;;;;;5.03;1.90;;;;;;;;;;5109294;28;20456;-80
2023/10/09 13:57:03;;;;;;;8.02;2.10;;;;;;;;;;5108706;28;20051;-80
2023/10/09 13:59:31;;;;;;;3.28;1.73;;;;;;;;;;5108883;28;20134;-81
2023/10/09 14:01:59;;;;;;;4.05;1.90;;;;;;;;;;5108924;28;20047;-82
2023/10/09 14:04:26;;;;;;;4.95;2.08;;;;;;;;;;5108696;28;20044;-80
2023/10/09 14:06:59;;;;;;;3.63;2.00;;;;;;;;;;5109213;28;20043;-81
2023/10/09 14:09:54;;;;;;;6.22;2.10;;;;;;;;;;5108431;28;20460;-82
2023/10/09 14:12:22;;;;;;;2.92;1.95;;;;;;;;;;5109077;28;20054;-81
2023/10/09 14:14:48;;;;;;;4.30;2.00;;;;;;;;;;5109197;28;20097;-82
2023/10/09 14:17:25;;;;;;;6.25;2.40;;;;;;;;;;5108718;28;20047;-82
2023/10/09 14:19:53;;;;;;;2.50;1.83;;;;;;;;;;5112912;28;20053;-82
2023/10/09 14:22:26;;;;;;;6.38;2.08;;;;;;;;;;5112797;28;20070;-81
2023/10/09 14:24:57;;;;;;;3.30;2.15;;;;;;;;;;5112032;28;20050;-79
2023/10/09 14:27:26;;;;;;;4.50;2.00;;;;;;;;;;5112919;28;20472;-81
2023/10/09 14:29:56;;;;;;;4.10;1.95;;;;;;;;;;5094971;28;20073;-81
2023/10/09 14:32:29;;;;;;;;;;;;;;;;;;5113427;28;20048;-80
2023/10/09 14:35:00;;;;;;;4.72;2.10;;;;;;;;;;5112231;28;19947;-82
2023/10/09 14:37:28;;;;;;;2.92;1.80;;;;;;;;;;5112420;28;20050;-81
2023/10/09 14:39:58;;;;;;;5.40;2.20;;;;;;;;;;5111750;28;20043;-81
2023/10/09 14:42:27;;;;;;;3.80;1.80;;;;;;;;;;5112705;28;20044;-80
2023/10/09 14:44:55;;;;;;;4.40;1.92;;;;;;;;;;5112420;28;20050;-81
2023/10/09 14:47:22;;;;;;;4.90;2.35;;;;;;;;;;5112594;28;20077;-82
2023/10/09 14:49:49;;;;;;;3.60;2.10;;;;;;;;;;5094044;28;20059;-81
2023/10/09 14:52:16;;;;;;;3.65;2.05;;;;;;;;;;5112091;28;20139;-78
2023/10/09 14:54:46;;;;;;;3.92;2.13;;;;;;;;;;5111613;28;20048;-81
2023/10/09 14:57:14;;;;;;;3.40;2.10;;;;;;;;;;5111745;28;20530;-82
2023/10/09 14:59:43;;;;;;;3.63;1.95;;;;;;;;;;5111575;28;20050;-81
2023/10/09 15:02:12;;;;;;;4.18;1.90;;;;;;;;;;5112113;28;20081;-81
2023/10/09 15:04:39;;;;;;;3.35;1.90;;;;;;;;;;5111948;28;20411;-82
2023/10/09 15:07:06;;;;;;;4.82;2.40;;;;;;;;;;5111945;28;20415;-82
2023/10/09 15:09:36;;;;;;;4.57;1.73;;;;;;;;;;5111466;28;20040;-82
2023/10/09 15:12:06;;;;;;;;;;;;;;;;;;5112281;28;20131;-80
2023/10/09 15:14:33;;;;;;;3.70;2.10;;;;;;;;;;5111671;28;20330;-81
2023/10/09 15:17:02;;;;;;;4.82;2.10;;;;;;;;;;5111336;28;20059;-82
2023/10/09 15:19:32;;;;;;;3.58;1.70;;;;;;;;;;5093571;28;20131;-82
2023/10/09 15:21:59;;;;;;;4.00;1.80;;;;;;;;;;5111637;28;20039;-82
2023/10/09 15:24:27;;;;;;;4.00;1.80;;;;;;;;;;5110960;28;20059;-80
2023/10/09 15:26:59;;;;;;;5.38;1.95;;;;;;;;;;5111941;28;20044;-80
2023/10/09 15:29:28;;;;;;;5.40;2.08;;;;;;;;;;5110178;28;20110;-81
2023/10/09 15:31:55;;;;;;;4.00;1.90;;;;;;;;;;5111680;28;20047;-83
2023/10/09 15:34:24;;;;;;;2.95;1.67;;;;;;;;;;5111287;28;20281;-82
2023/10/09 15:36:53;;;;;;;3.40;1.80;;;;;;;;;;5111541;28;20071;-81
2023/10/09 15:39:20;;;;;;;2.63;1.50;;;;;;;;;;5110523;28;20047;-81
2023/10/09 15:41:47;;;;;;;3.65;1.85;;;;;;;;;;5111388;28;20046;-80
2023/10/09 15:44:13;;;;;;;3.80;2.00;;;;;;;;;;5111350;28;20051;-80
2023/10/09 15:46:43;;;;;;;3.08;1.90;;;;;;;;;;5111209;28;20052;-80
2023/10/09 15:49:13;;;;;;;4.05;1.90;;;;;;;;;;5110840;28;20050;-80
2023/10/09 15:51:40;;;;;;;4.15;2.20;;;;;;;;;;5111113;28;20077;-81
2023/10/09 15:54:10;;;;;;;4.20;1.92;;;;;;;;;;5110483;28;20078;-81
2023/10/09 15:56:41;;;;;;;5.18;1.80;;;;;;;;;;5109864;28;20112;-81
2023/10/09 15:59:16;;;;;;;7.32;1.95;;;;;;;;;;5110418;28;20044;-76
2023/10/09 16:01:43;;;;;;;3.92;1.77;;;;;;;;;;5111037;28;20488;-79
2023/10/09 16:04:10;;;;;;;3.58;1.75;;;;;;;;;;5111070;28;20075;-80
2023/10/09 16:06:41;;;;;;;6.65;2.10;;;;;;;;;;5110480;28;20072;-80
2023/10/09 16:09:11;;;;;;;3.40;1.77;;;;;;;;;;5110244;28;20048;-80
2023/10/09 16:11:39;;;;;;;5.07;1.70;;;;;;;;;;5110341;28;20515;-81
2023/10/09 16:14:09;;;;;;;5.45;2.00;;;;;;;;;;5110962;28;20051;-80
2023/10/09 16:16:43;;;;;;;;;;;;;;;;;;5110732;28;20468;-76
2023/10/09 16:19:11;;;;;;;6.63;2.22;;;;;;;;;;5110221;28;19920;-81
2023/10/09 16:21:39;;;;;;;3.67;1.73;;;;;;;;;;5110719;28;20043;-81
2023/10/09 16:24:09;;;;;;;3.40;1.75;;;;;;;;;;5110476;28;20047;-82
2023/10/09 16:26:45;;;;;;;4.85;1.83;;;;;;;;;;5092137;28;20043;-73
2023/10/09 16:29:12;;;;;;;4.47;1.80;;;;;;;;;;5110118;28;20040;-81
2023/10/09 16:31:39;;;;;;;4.47;1.88;;;;;;;;;;5110228;28;20086;-81
2023/10/09 16:34:08;;;;;;;3.28;1.73;;;;;;;;;;5110124;28;20048;-81
2023/10/09 16:36:35;;;;;;;5.57;1.70;;;;;;;;;;5110121;28;20047;-79
2023/10/09 16:39:03;;;;;;;4.93;2.00;;;;;;;;;;5109910;28;20047;-80
2023/10/09 16:41:34;;;;;;;3.17;1.75;;;;;;;;;;5110298;28;20050;-82
2023/10/09 16:44:04;;;;;;;3.70;1.80;;;;;;;;;;5109993;28;20051;-80
2023/10/09 16:46:31;;;;;;;6.97;1.80;;;;;;;;;;5109685;28;20048;-76
2023/10/09 16:49:04;;;;;;;5.15;1.90;;;;;;;;;;5110067;28;20153;-81
2023/10/09 16:51:31;;;;;;;3.47;1.70;;;;;;;;;;5109962;28;20075;-82
2023/10/09 16:53:58;;;;;;;5.82;2.17;;;;;;;;;;5109397;28;20047;-79
2023/10/09 16:56:32;;;;;;;3.28;1.88;;;;;;;;;;5109608;28;20050;-77
2023/10/09 16:59:00;;;;;;;6.88;2.08;;;;;;;;;;5109191;28;20398;-81
2023/10/09 17:01:27;;;;;;;3.90;1.73;;;;;;;;;;5091695;28;20051;-80
2023/10/09 17:03:57;;;;;;;3.95;1.55;;;;;;;;;;5110144;28;20044;-81
2023/10/09 17:06:28;;;;;;;4.68;1.85;;;;;;;;;;5109553;28;20051;-80
2023/10/09 17:08:56;;;;;;;4.65;2.25;;;;;;;;;;5109247;28;20059;-76
2023/10/09 17:11:24;;;;;;;5.35;2.30;;;;;;;;;;5109114;28;20491;-82
2023/10/09 17:13:54;;;;;;;5.70;2.10;;;;;;;;;;5109487;28;20449;-81
2023/10/09 17:16:23;;;;;;;4.47;1.77;;;;;;;;;;5091033;28;20135;-78
2023/10/09 17:18:53;;;;;;;5.07;1.80;;;;;;;;;;5091466;28;20051;-80
2023/10/09 17:21:23;;;;;;;5.97;2.13;;;;;;;;;;5109103;28;20427;-80
2023/10/09 17:23:53;;;;;;;7.57;2.33;;;;;;;;;;5108890;28;20463;-80
2023/10/09 17:26:23;;;;;;;3.72;2.20;;;;;;;;;;5108868;28;20590;-78
2023/10/09 17:28:52;;;;;;;5.13;2.30;;;;;;;;;;5109125;28;20514;-80
2023/10/09 17:31:25;;;;;;;5.90;2.35;;;;;;;;;;5109138;28;20071;-82
2023/10/09 17:33:55;;;;;;;5.20;2.75;;;;;;;;;;5109559;28;20127;-80
2023/10/09 17:36:22;;;;;;;8.00;2.72;;;;;;;;;;5108705;28;20499;-74
2023/10/09 17:38:49;;;;;;;4.28;2.30;;;;;;;;;;5108442;28;20423;-76
2023/10/09 17:41:21;;;;;;;4.80;2.38;;;;;;;;;;5109134;28;20137;-79
2023/10/09 17:43:50;;;;;;;5.80;2.45;;;;;;;;;;5109383;28;20112;-81
2023/10/09 17:46:17;;;;;;;10.30;3.28;;;;;;;;;;5108892;28;20047;-81
2023/10/09 17:48:45;;;;;;;5.65;2.70;;;;;;;;;;5109058;28;20534;-79
2023/10/09 17:51:12;;;;;;;8.30;3.53;;;;;;;;;;5109007;28;20050;-80